Time;durP1;ratioP1;P1;durP2;ratioP2;P2;SDS_P1;SDS_P2;PMS_P1;PMS_P2;Temp;Humidity;BMP_temperature;BMP_pressure;BME280_temperature;BME280_humidity;BME280_pressure;Samples;Min_cycle;Max_cycle;Signal;HPM_P1;HPM_P2
2021/10/19 00:02:09;;;;;;;61.60;31.90;;;;;;;5.99;81.13;101223.36;113210;1198;25119;-59
2021/10/19 00:04:40;;;;;;;59.80;30.70;;;;;;;6.01;81.28;101221.52;113052;1198;22442;-59
2021/10/19 00:07:11;;;;;;;60.20;29.50;;;;;;;6.01;81.32;101227.20;113206;1198;22468;-58
2021/10/19 00:09:41;;;;;;;59.40;31.20;;;;;;;6.01;81.43;101229.98;113014;1198;22440;-60
2021/10/19 00:12:12;;;;;;;59.30;30.10;;;;;;;6.00;81.35;101230.70;112958;1192;22436;-59
2021/10/19 00:14:43;;;;;;;53.70;29.40;;;;;;;5.98;81.39;101223.92;113106;1198;24062;-58
2021/10/19 00:17:14;;;;;;;55.50;29.60;;;;;;;5.97;81.34;101223.31;113918;1170;24037;-59
2021/10/19 00:19:45;;;;;;;58.70;28.40;;;;;;;5.97;81.41;101224.05;113982;1196;24085;-60
2021/10/19 00:22:16;;;;;;;56.90;29.10;;;;;;;5.95;81.48;101224.40;113574;1198;22436;-58
2021/10/19 00:24:47;;;;;;;56.70;29.80;;;;;;;5.93;81.50;101229.18;113978;1196;25122;-58
2021/10/19 00:27:17;;;;;;;58.50;30.10;;;;;;;5.92;81.51;101234.82;113542;1196;22911;-59
2021/10/19 00:29:48;;;;;;;58.80;31.00;;;;;;;5.92;81.53;101231.34;114193;1198;25127;-58
2021/10/19 00:32:19;;;;;;;59.20;31.00;;;;;;;5.91;81.53;101226.13;113716;1190;22450;-58
2021/10/19 00:34:50;;;;;;;57.50;29.30;;;;;;;5.91;81.77;101228.52;113688;1197;22442;-59
2021/10/19 00:37:22;;;;;;;55.40;27.30;;;;;;;5.90;81.75;101228.52;113578;1196;22424;-59
2021/10/19 00:39:53;;;;;;;56.80;28.30;;;;;;;5.88;81.76;101224.77;113678;1189;25022;-56
2021/10/19 00:42:23;;;;;;;48.40;25.60;;;;;;;5.87;81.76;101213.99;113653;1198;25052;-60
2021/10/19 00:44:54;;;;;;;55.50;26.20;;;;;;;5.84;81.43;101210.01;113882;1196;22995;-58
2021/10/19 00:47:25;;;;;;;52.40;26.40;;;;;;;5.79;81.29;101210.63;113687;1190;24339;-59
2021/10/19 00:49:56;;;;;;;52.10;27.30;;;;;;;5.75;81.33;101211.91;113898;1189;22449;-58
2021/10/19 00:52:27;;;;;;;59.10;28.20;;;;;;;5.71;81.34;101209.52;113763;1196;25019;-59
2021/10/19 00:54:59;;;;;;;49.10;26.30;;;;;;;5.68;81.32;101205.91;113430;1197;22449;-60
2021/10/19 00:57:30;;;;;;;55.10;27.50;;;;;;;5.65;81.32;101199.63;113533;1198;22452;-59
2021/10/19 01:00:00;;;;;;;53.90;25.60;;;;;;;5.64;81.21;101194.83;113892;1196;22432;-59
2021/10/19 01:02:31;;;;;;;48.90;25.30;;;;;;;5.61;81.27;101193.61;113756;1196;25104;-59
2021/10/19 01:05:02;;;;;;;48.70;24.60;;;;;;;5.57;81.19;101194.80;113716;1197;23779;-57
2021/10/19 01:07:33;;;;;;;49.50;26.60;;;;;;;5.55;81.47;101187.70;113688;1196;25135;-58
2021/10/19 01:10:05;;;;;;;49.30;24.50;;;;;;;5.54;81.44;101182.98;113689;1190;24097;-58
2021/10/19 01:12:38;;;;;;;44.80;23.90;;;;;;;5.53;81.42;101181.49;113620;1197;22437;-57
2021/10/19 01:15:14;;;;;;;48.20;24.80;;;;;;;5.51;81.44;101175.19;113711;1197;25111;-59
2021/10/19 01:17:48;;;;;;;49.10;24.20;;;;;;;5.49;81.47;101172.22;113858;1197;24020;-58
2021/10/19 01:20:24;;;;;;;43.50;23.60;;;;;;;5.48;81.38;101172.00;113630;1197;22438;-59
2021/10/19 01:22:56;;;;;;;46.40;23.90;;;;;;;5.47;81.42;101167.11;113570;1198;24306;-58
2021/10/19 01:25:30;;;;;;;48.30;24.70;;;;;;;5.47;81.29;101160.55;113611;1198;24040;-59
2021/10/19 01:28:04;;;;;;;52.70;25.60;;;;;;;5.44;81.36;101158.22;113662;1190;22458;-59
2021/10/19 01:30:42;;;;;;;55.30;26.50;;;;;;;5.43;81.45;101154.76;113759;1190;22444;-59
2021/10/19 01:33:13;;;;;;;50.70;25.10;;;;;;;5.43;81.51;101161.00;113794;1190;23769;-58
2021/10/19 01:35:46;;;;;;;50.90;23.60;;;;;;;5.44;81.53;101161.16;113700;1198;25061;-58
2021/10/19 01:38:19;;;;;;;53.90;25.10;;;;;;;5.43;81.55;101151.84;113708;1198;22446;-57
2021/10/19 01:40:50;;;;;;;51.20;26.00;;;;;;;5.44;81.64;101146.13;113534;1198;22435;-60
2021/10/19 01:43:23;;;;;;;48.70;24.80;;;;;;;5.45;81.73;101146.42;113713;1196;25108;-58
2021/10/19 01:45:56;;;;;;;52.90;27.80;;;;;;;5.45;81.85;101149.73;113681;1197;22465;-58
2021/10/19 01:48:27;;;;;;;52.60;25.90;;;;;;;5.46;81.97;101146.33;113589;1190;22458;-59
2021/10/19 01:50:59;;;;;;;49.80;26.60;;;;;;;5.45;81.96;101140.31;113601;1198;24112;-57
2021/10/19 01:53:30;;;;;;;51.40;25.50;;;;;;;5.45;81.96;101139.38;113818;1198;25114;-59
2021/10/19 01:56:01;;;;;;;51.10;25.00;;;;;;;5.45;82.07;101134.15;113649;1189;25217;-58
2021/10/19 01:58:32;;;;;;;51.80;26.30;;;;;;;5.45;82.14;101133.05;113645;1198;25141;-57
2021/10/19 02:01:04;;;;;;;49.70;24.70;;;;;;;5.44;82.06;101129.34;113705;1190;22528;-57
2021/10/19 02:03:34;;;;;;;43.20;23.50;;;;;;;5.44;82.01;101121.34;113586;1198;22631;-58
2021/10/19 02:06:06;;;;;;;46.70;25.00;;;;;;;5.43;82.02;101117.98;113607;1183;22704;-60
2021/10/19 02:08:37;;;;;;;47.90;24.60;;;;;;;5.41;82.09;101116.42;113629;1198;22450;-57
2021/10/19 02:11:08;;;;;;;45.90;22.20;;;;;;;5.41;82.25;101121.31;113560;1197;26403;-57
2021/10/19 02:13:39;;;;;;;46.60;23.60;;;;;;;5.43;82.28;101120.27;113550;1196;22425;-59
2021/10/19 02:16:10;;;;;;;54.00;23.80;;;;;;;5.44;82.31;101115.98;113592;1198;22416;-58
2021/10/19 02:18:42;;;;;;;46.10;22.90;;;;;;;5.44;82.31;101115.91;113624;1196;22448;-58
2021/10/19 02:21:13;;;;;;;47.50;24.10;;;;;;;5.44;82.42;101119.14;113774;1196;22448;-59
2021/10/19 02:23:44;;;;;;;45.40;23.80;;;;;;;5.44;82.57;101116.67;113602;1196;22412;-58
2021/10/19 02:26:14;;;;;;;45.10;22.70;;;;;;;5.44;82.63;101115.34;113594;1198;22446;-57
2021/10/19 02:28:45;;;;;;;49.00;24.30;;;;;;;5.44;82.67;101114.46;113545;1197;22454;-59
2021/10/19 02:31:15;;;;;;;45.60;22.30;;;;;;;5.44;82.77;101113.52;113540;1197;24103;-59
2021/10/19 02:33:46;;;;;;;50.20;23.00;;;;;;;5.45;82.82;101112.71;113643;1190;24129;-60
2021/10/19 02:36:18;;;;;;;50.10;25.10;;;;;;;5.45;82.80;101113.34;113526;1198;22819;-58
2021/10/19 02:38:48;;;;;;;59.60;30.30;;;;;;;5.45;82.81;101117.46;113741;1197;22439;-57
2021/10/19 02:41:19;;;;;;;57.20;28.50;;;;;;;5.46;82.89;101114.66;113591;1197;25221;-59
2021/10/19 02:43:50;;;;;;;66.10;30.60;;;;;;;5.45;82.82;101115.95;113537;1197;24072;-57
2021/10/19 02:46:21;;;;;;;61.50;29.90;;;;;;;5.44;82.80;101112.89;113515;1190;22415;-60
2021/10/19 02:48:52;;;;;;;78.70;37.80;;;;;;;5.44;82.70;101112.42;113611;1198;22556;-59
2021/10/19 02:51:23;;;;;;;75.30;36.10;;;;;;;5.42;82.66;101106.84;113589;1190;22433;-60
2021/10/19 02:53:54;;;;;;;73.60;35.60;;;;;;;5.41;82.58;101110.17;113691;1197;22756;-59
2021/10/19 02:56:26;;;;;;;61.90;30.70;;;;;;;5.39;82.67;101117.33;113693;1190;22596;-58
2021/10/19 02:58:57;;;;;;;55.00;28.50;;;;;;;5.38;82.59;101122.58;113872;1190;25126;-58
2021/10/19 03:01:29;;;;;;;53.60;25.70;;;;;;;5.36;82.62;101123.95;113631;1196;25051;-60
2021/10/19 03:04:00;;;;;;;52.90;26.40;;;;;;;5.35;82.61;101122.55;113580;1198;25070;-60
2021/10/19 03:06:31;;;;;;;47.00;24.50;;;;;;;5.36;82.66;101125.86;113493;1198;24132;-60
2021/10/19 03:09:02;;;;;;;45.70;23.10;;;;;;;5.36;82.76;101120.85;113844;1196;24014;-58
2021/10/19 03:11:32;;;;;;;45.20;24.10;;;;;;;5.35;82.62;101115.81;113704;1197;26330;-58
2021/10/19 03:14:03;;;;;;;48.20;22.70;;;;;;;5.34;82.72;101113.63;113584;1198;22456;-57
2021/10/19 03:16:34;;;;;;;46.30;22.00;;;;;;;5.32;82.74;101112.45;113519;1198;24047;-58
2021/10/19 03:19:05;;;;;;;42.10;19.70;;;;;;;5.30;82.67;101111.95;113651;1198;25231;-60
2021/10/19 03:21:36;;;;;;;40.00;19.10;;;;;;;5.29;82.75;101110.79;113729;1197;24075;-58
2021/10/19 03:24:07;;;;;;;43.60;21.40;;;;;;;5.29;82.91;101115.45;113582;1196;22483;-59
2021/10/19 03:26:38;;;;;;;47.20;20.10;;;;;;;5.29;83.02;101115.29;113714;1198;24018;-60
2021/10/19 03:29:09;;;;;;;39.80;19.70;;;;;;;5.31;83.06;101116.52;113590;1190;22428;-59
2021/10/19 03:31:42;;;;;;;40.00;19.80;;;;;;;5.33;83.13;101116.41;113483;1190;23763;-57
2021/10/19 03:34:13;;;;;;;41.70;20.40;;;;;;;5.34;83.14;101113.95;113495;1198;22443;-58
2021/10/19 03:36:44;;;;;;;40.50;20.90;;;;;;;5.35;83.26;101118.67;113906;1197;22391;-61
2021/10/19 03:39:15;;;;;;;42.40;22.00;;;;;;;5.37;83.34;101124.26;113879;1196;24010;-59
2021/10/19 03:41:46;;;;;;;42.30;22.10;;;;;;;5.37;83.33;101131.13;113574;1197;23809;-59
2021/10/19 03:44:17;;;;;;;44.70;20.60;;;;;;;5.38;83.54;101129.83;113518;1197;25424;-60
2021/10/19 03:46:48;;;;;;;45.90;20.70;;;;;;;5.40;83.50;101131.95;113544;1198;22439;-58
2021/10/19 03:49:19;;;;;;;44.20;20.30;;;;;;;5.39;83.42;101138.06;113487;1197;24749;-58
2021/10/19 03:51:50;;;;;;;41.20;19.50;;;;;;;5.38;83.46;101129.38;113633;1197;22440;-59
2021/10/19 03:54:21;;;;;;;39.70;20.20;;;;;;;5.38;83.55;101134.75;113625;1198;23043;-65
2021/10/19 03:56:52;;;;;;;42.20;20.30;;;;;;;5.38;83.63;101137.94;113879;1196;22426;-61
2021/10/19 03:59:23;;;;;;;43.30;20.10;;;;;;;5.39;83.65;101142.17;113689;1197;24252;-58
2021/10/19 04:01:54;;;;;;;38.40;18.90;;;;;;;5.40;83.75;101140.34;113514;1197;22441;-60
2021/10/19 04:04:25;;;;;;;34.50;18.30;;;;;;;5.40;83.72;101133.55;113587;1196;24081;-59
2021/10/19 04:06:56;;;;;;;38.90;17.50;;;;;;;5.40;83.64;101135.83;113336;1190;23559;-59
2021/10/19 04:09:26;;;;;;;36.30;16.20;;;;;;;5.40;83.72;101140.81;113151;1198;24200;-56
2021/10/19 04:11:57;;;;;;;36.30;16.60;;;;;;;5.42;83.84;101143.15;113354;1198;22456;-58
2021/10/19 04:14:28;;;;;;;33.60;15.60;;;;;;;5.44;83.89;101140.11;113595;1190;22458;-58
2021/10/19 04:16:59;;;;;;;36.10;16.00;;;;;;;5.46;83.95;101141.89;113394;1189;23105;-55
2021/10/19 04:19:32;;;;;;;39.00;17.90;;;;;;;5.48;84.00;101139.09;113376;1198;22415;-57
2021/10/19 04:22:03;;;;;;;36.60;16.60;;;;;;;5.50;84.05;101134.78;113440;1198;24034;-57
2021/10/19 04:24:34;;;;;;;34.20;15.90;;;;;;;5.51;84.03;101130.48;113340;1198;23803;-56
2021/10/19 04:27:05;;;;;;;34.80;16.20;;;;;;;5.51;84.10;101133.25;113776;1197;22555;-57
2021/10/19 04:29:36;;;;;;;36.10;16.80;;;;;;;5.50;84.16;101137.08;113598;1198;23756;-53
2021/10/19 04:32:08;;;;;;;35.30;17.40;;;;;;;5.49;84.14;101141.83;113418;1197;22423;-56
2021/10/19 04:34:39;;;;;;;33.80;16.80;;;;;;;5.49;84.14;101139.70;113424;1197;24573;-55
2021/10/19 04:37:11;;;;;;;34.70;17.10;;;;;;;5.50;84.21;101134.69;115008;1197;24576;-56
2021/10/19 04:39:41;;;;;;;39.90;17.30;;;;;;;5.53;84.34;101128.55;113488;1196;22448;-54
2021/10/19 04:42:12;;;;;;;40.40;18.80;;;;;;;5.55;84.39;101123.63;113323;1198;22453;-53
2021/10/19 04:44:44;;;;;;;42.10;18.00;;;;;;;5.57;84.39;101119.30;113496;1196;22439;-55
2021/10/19 04:47:16;;;;;;;37.80;16.90;;;;;;;5.61;84.42;101115.03;113832;1196;22428;-53
2021/10/19 04:49:47;;;;;;;35.80;17.00;;;;;;;5.64;84.43;101116.62;113401;1198;25057;-58
2021/10/19 04:52:17;;;;;;;40.20;15.80;;;;;;;5.66;84.41;101112.79;113505;1190;22444;-54
2021/10/19 04:54:49;;;;;;;35.10;16.30;;;;;;;5.69;84.42;101116.94;113533;1196;25114;-56
2021/10/19 04:57:20;;;;;;;33.50;15.70;;;;;;;5.69;84.32;101119.30;113577;1198;24112;-56
2021/10/19 04:59:51;;;;;;;39.20;17.00;;;;;;;5.69;84.38;101119.30;113485;1182;22416;-57
2021/10/19 05:02:22;;;;;;;37.00;18.90;;;;;;;5.69;84.34;101120.80;113437;1196;24069;-56
2021/10/19 05:04:53;;;;;;;38.90;18.10;;;;;;;5.68;84.31;101114.80;113402;1196;25118;-53
2021/10/19 05:07:24;;;;;;;34.10;17.30;;;;;;;5.68;84.28;101112.98;113428;1197;24131;-55
2021/10/19 05:09:55;;;;;;;40.00;17.20;;;;;;;5.68;84.25;101108.42;113481;1197;25095;-53
2021/10/19 05:12:26;;;;;;;35.30;15.40;;;;;;;5.68;84.33;101101.68;113388;1190;25334;-54
2021/10/19 05:14:57;;;;;;;42.70;17.40;;;;;;;5.69;84.33;101100.46;113391;1196;22474;-55
2021/10/19 05:17:28;;;;;;;38.00;15.20;;;;;;;5.70;84.47;101098.55;113074;1190;24035;-54
2021/10/19 05:19:59;;;;;;;40.30;16.00;;;;;;;5.71;84.41;101096.06;113533;1196;24938;-53
2021/10/19 05:22:30;;;;;;;36.30;15.90;;;;;;;5.73;84.48;101084.48;113592;1196;22418;-56
2021/10/19 05:25:01;;;;;;;38.00;14.90;;;;;;;5.75;84.51;101082.01;113366;1197;22454;-55
2021/10/19 05:27:32;;;;;;;37.20;14.40;;;;;;;5.77;84.48;101075.63;113282;1198;24674;-56
2021/10/19 05:30:03;;;;;;;34.40;15.30;;;;;;;5.77;84.49;101067.88;113448;1197;23875;-58
2021/10/19 05:32:34;;;;;;;34.00;14.30;;;;;;;5.78;84.51;101065.23;113845;1189;22428;-53
2021/10/19 05:35:07;;;;;;;36.40;15.10;;;;;;;5.79;84.51;101060.40;113457;1190;22456;-55
2021/10/19 05:37:37;;;;;;;35.30;15.10;;;;;;;5.78;84.50;101053.74;113506;1197;24552;-55
2021/10/19 05:40:11;;;;;;;36.40;15.80;;;;;;;5.79;84.46;101044.64;113369;1197;24120;-58
2021/10/19 05:42:41;;;;;;;34.30;14.80;;;;;;;5.79;84.57;101039.73;113475;1190;22575;-55
2021/10/19 05:45:13;;;;;;;35.20;15.50;;;;;;;5.78;84.54;101043.21;113407;1198;22421;-56
2021/10/19 05:47:45;;;;;;;32.50;14.40;;;;;;;5.78;84.67;101049.00;113414;1196;25108;-54
2021/10/19 05:50:18;;;;;;;33.70;15.20;;;;;;;5.78;84.71;101049.80;113422;1196;22899;-55
2021/10/19 05:52:49;;;;;;;30.70;14.40;;;;;;;5.78;84.79;101055.19;113423;1190;25150;-57
2021/10/19 05:55:23;;;;;;;39.50;15.40;;;;;;;5.79;84.87;101063.79;113475;1196;25245;-56
2021/10/19 05:57:54;;;;;;;36.40;15.30;;;;;;;5.80;84.82;101068.75;113395;1197;25055;-55
2021/10/19 06:00:26;;;;;;;35.80;14.50;;;;;;;5.80;84.79;101074.21;113348;1197;26436;-56
2021/10/19 06:02:56;;;;;;;34.00;14.80;;;;;;;5.82;84.66;101086.99;113470;1190;22433;-54
2021/10/19 06:05:27;;;;;;;32.80;15.60;;;;;;;5.82;84.75;101080.34;113299;1196;22436;-56
2021/10/19 06:07:58;;;;;;;35.70;14.60;;;;;;;5.84;84.76;101080.58;113758;1197;22553;-53
2021/10/19 06:10:30;;;;;;;42.00;16.50;;;;;;;5.85;84.88;101082.23;113768;1198;24177;-56
2021/10/19 06:13:01;;;;;;;43.10;18.20;;;;;;;5.86;84.87;101080.84;113477;1197;24071;-55
2021/10/19 06:15:32;;;;;;;46.90;20.50;;;;;;;5.88;84.97;101078.05;113446;1190;22472;-54
2021/10/19 06:18:04;;;;;;;53.90;22.20;;;;;;;5.91;85.11;101083.06;113406;1198;24074;-54
2021/10/19 06:20:35;;;;;;;46.20;21.40;;;;;;;5.92;85.13;101081.50;113491;1198;22458;-56
2021/10/19 06:23:05;;;;;;;52.50;22.10;;;;;;;5.96;85.25;101083.41;113480;1190;22434;-56
2021/10/19 06:25:37;;;;;;;47.80;20.60;;;;;;;6.00;85.32;101090.95;113381;1197;24098;-56
2021/10/19 06:28:08;;;;;;;44.10;19.10;;;;;;;6.03;85.25;101093.79;113485;1196;25126;-56
2021/10/19 06:30:39;;;;;;;41.80;18.40;;;;;;;6.07;85.32;101088.89;113490;1197;22451;-53
2021/10/19 06:33:11;;;;;;;32.20;16.50;;;;;;;6.11;85.34;101089.44;113513;1196;22537;-56
2021/10/19 06:35:42;;;;;;;35.90;15.30;;;;;;;6.15;85.41;101089.82;113864;1198;22423;-52
2021/10/19 06:38:13;;;;;;;35.30;15.50;;;;;;;6.20;85.79;101098.04;113405;1198;25108;-54
2021/10/19 06:40:45;;;;;;;29.10;13.30;;;;;;;6.27;85.74;101095.35;113592;1197;22450;-56
2021/10/19 06:43:16;;;;;;;34.80;14.70;;;;;;;6.33;85.73;101094.34;113373;1198;25111;-53
2021/10/19 06:45:55;;;;;;;36.10;15.40;;;;;;;6.40;85.83;101097.45;113810;1198;24072;-59
2021/10/19 06:48:28;;;;;;;37.30;15.50;;;;;;;6.47;86.15;101106.55;113560;1197;22425;-56
2021/10/19 06:50:59;;;;;;;34.30;13.70;;;;;;;6.56;86.31;101109.36;113375;1197;25051;-57
2021/10/19 06:53:30;;;;;;;27.40;12.60;;;;;;;6.65;86.29;101110.67;113442;1198;24092;-56
2021/10/19 06:56:01;;;;;;;28.60;11.70;;;;;;;6.73;86.31;101102.63;113441;1196;22456;-57
2021/10/19 06:58:32;;;;;;;27.60;11.30;;;;;;;6.80;86.32;101095.10;113457;1190;26385;-56
2021/10/19 07:01:05;;;;;;;37.60;11.80;;;;;;;6.88;86.47;101099.73;113505;1197;24109;-56
2021/10/19 07:03:37;;;;;;;27.00;12.20;;;;;;;6.97;86.39;101103.57;113443;1197;22882;-53
2021/10/19 07:06:08;;;;;;;31.90;11.50;;;;;;;7.05;86.49;101095.67;113585;1190;22431;-53
2021/10/19 07:08:39;;;;;;;28.30;11.90;;;;;;;7.14;86.56;101097.67;113565;1197;22482;-56
2021/10/19 07:11:10;;;;;;;31.40;13.50;;;;;;;7.23;86.80;101100.03;113502;1196;25130;-55
2021/10/19 07:13:41;;;;;;;25.80;10.80;;;;;;;7.36;86.97;101101.95;113477;1196;22438;-56
2021/10/19 07:16:11;;;;;;;28.10;10.30;;;;;;;7.49;87.21;101107.61;113400;1197;22586;-57
2021/10/19 07:18:42;;;;;;;26.60;10.00;;;;;;;7.62;87.10;101113.86;113349;1197;22431;-56
2021/10/19 07:21:13;;;;;;;22.20;9.80;;;;;;;7.75;87.23;101112.31;113539;1198;22422;-56
2021/10/19 07:23:44;;;;;;;20.90;9.00;;;;;;;7.89;87.22;101114.08;113591;1196;22422;-56
2021/10/19 07:26:15;;;;;;;21.20;7.20;;;;;;;8.04;87.26;101114.43;113732;1198;24544;-57
2021/10/19 07:28:46;;;;;;;17.10;6.00;;;;;;;8.22;87.13;101115.54;113385;1190;23767;-55
2021/10/19 07:31:17;;;;;;;15.10;5.40;;;;;;;8.39;86.67;101121.33;113537;1197;22439;-53
2021/10/19 07:33:49;;;;;;;16.70;5.50;;;;;;;8.54;86.61;101117.86;113474;1190;24056;-56
2021/10/19 07:36:20;;;;;;;18.50;6.10;;;;;;;8.67;86.06;101124.10;113375;1190;24008;-54
2021/10/19 07:38:52;;;;;;;16.30;5.50;;;;;;;8.80;85.93;101112.01;113323;1182;22989;-59
2021/10/19 07:41:23;;;;;;;16.80;4.80;;;;;;;8.92;85.70;101100.41;113542;1196;25085;-56
2021/10/19 07:43:55;;;;;;;17.40;5.10;;;;;;;9.03;85.70;101091.77;113494;1182;22431;-57
2021/10/19 07:46:26;;;;;;;15.20;4.30;;;;;;;9.15;85.61;101087.95;113611;1190;22460;-55
2021/10/19 07:48:57;;;;;;;14.10;4.20;;;;;;;9.26;85.31;101083.61;113314;1198;22487;-57
2021/10/19 07:51:28;;;;;;;15.50;4.00;;;;;;;9.36;84.91;101074.34;113542;1196;24599;-57
2021/10/19 07:53:59;;;;;;;11.10;3.70;;;;;;;9.47;84.96;101075.88;113533;1197;22447;-54
2021/10/19 07:56:30;;;;;;;12.90;3.40;;;;;;;9.57;84.64;101075.73;113454;1190;24011;-53
2021/10/19 07:59:06;;;;;;;13.10;4.00;;;;;;;9.67;84.39;101073.70;113484;1197;22438;-53
2021/10/19 08:01:37;;;;;;;11.40;3.40;;;;;;;9.76;84.17;101066.32;113544;1190;22435;-57
2021/10/19 08:04:09;;;;;;;12.70;3.90;;;;;;;9.85;84.06;101070.13;113386;1198;25139;-55
2021/10/19 08:06:40;;;;;;;9.80;2.30;;;;;;;9.91;83.91;101063.76;113354;1196;22423;-54
2021/10/19 08:09:10;;;;;;;13.20;3.50;;;;;;;10.00;83.64;101068.99;113413;1190;22421;-56
2021/10/19 08:11:41;;;;;;;11.00;2.70;;;;;;;10.10;83.43;101067.84;113408;1196;24099;-55
2021/10/19 08:14:12;;;;;;;12.80;3.00;;;;;;;10.21;83.38;101075.33;113282;1196;25138;-53
2021/10/19 08:16:44;;;;;;;8.40;2.00;;;;;;;10.32;83.07;101076.04;113334;1196;24057;-56
2021/10/19 08:19:15;;;;;;;7.20;2.10;;;;;;;10.43;82.81;101068.70;113413;1190;25020;-55
2021/10/19 08:21:46;;;;;;;9.20;1.80;;;;;;;10.57;82.19;101068.65;113587;1198;23012;-55
2021/10/19 08:24:17;;;;;;;7.50;1.60;;;;;;;10.74;81.97;101068.55;113147;1198;22445;-56
2021/10/19 08:26:48;;;;;;;5.20;1.40;;;;;;;10.87;81.60;101068.11;113232;1197;24040;-56
2021/10/19 08:29:20;;;;;;;7.70;1.60;;;;;;;10.98;81.47;101071.08;113365;1196;27330;-57
2021/10/19 08:31:51;;;;;;;5.50;1.40;;;;;;;11.05;81.03;101064.77;113530;1197;25412;-55
2021/10/19 08:34:22;;;;;;;5.80;1.40;;;;;;;11.17;80.30;101063.33;113214;1190;22432;-54
2021/10/19 08:36:53;;;;;;;7.60;1.70;;;;;;;11.27;80.36;101063.06;113245;1196;22422;-54
2021/10/19 08:39:24;;;;;;;6.60;1.50;;;;;;;11.33;80.28;101064.71;113236;1190;22440;-54
2021/10/19 08:41:55;;;;;;;6.10;1.40;;;;;;;11.39;80.01;101063.63;113335;1196;22433;-55
2021/10/19 08:44:44;;;;;;;8.30;2.20;;;;;;;11.48;79.90;101067.11;113411;1196;22447;-53
2021/10/19 08:47:17;;;;;;;11.20;1.70;;;;;;;11.58;79.51;101068.67;113319;1197;25114;-55
2021/10/19 08:49:50;;;;;;;8.40;1.50;;;;;;;11.67;79.30;101067.83;113484;1190;24059;-56
2021/10/19 08:52:22;;;;;;;9.90;1.60;;;;;;;11.77;79.31;101068.48;113506;1196;22437;-55
2021/10/19 08:54:53;;;;;;;8.60;1.30;;;;;;;11.85;78.70;101066.61;113520;1196;24044;-56
2021/10/19 08:57:24;;;;;;;7.50;1.50;;;;;;;11.92;78.54;101060.75;113302;1196;23964;-56
2021/10/19 08:59:57;;;;;;;5.50;1.20;;;;;;;12.02;78.08;101055.48;113175;1196;22446;-55
2021/10/19 09:02:40;;;;;;;5.80;1.40;;;;;;;12.14;77.77;101054.95;113564;1197;22441;-57
2021/10/19 09:05:18;;;;;;;5.90;1.30;;;;;;;12.21;77.51;101051.27;113345;1197;22407;-53
2021/10/19 09:08:00;;;;;;;4.90;1.00;;;;;;;12.34;76.86;101049.14;113199;1198;22437;-54
2021/10/19 09:10:34;;;;;;;5.10;1.00;;;;;;;12.51;76.16;101043.92;113400;1198;25139;-57
2021/10/19 09:13:06;;;;;;;6.20;0.90;;;;;;;12.62;75.88;101043.77;113231;1190;22457;-54
2021/10/19 09:15:40;;;;;;;5.00;0.80;;;;;;;12.73;75.30;101043.01;113226;1198;22433;-54
2021/10/19 09:18:12;;;;;;;5.20;0.90;;;;;;;12.81;74.68;101045.95;113334;1197;22441;-57
2021/10/19 09:20:46;;;;;;;6.10;0.90;;;;;;;12.89;74.39;101043.38;113331;1198;22426;-55
2021/10/19 09:23:21;;;;;;;7.00;1.10;;;;;;;12.97;73.76;101032.70;113296;1196;23001;-55
2021/10/19 09:25:54;;;;;;;3.50;0.80;;;;;;;13.02;73.91;101039.79;113327;1198;22440;-54
2021/10/19 09:28:37;;;;;;;6.90;1.00;;;;;;;13.06;73.92;101040.29;113469;1190;22441;-57
2021/10/19 09:31:09;;;;;;;7.90;1.40;;;;;;;13.10;73.59;101037.84;113279;1190;24072;-54
2021/10/19 09:33:40;;;;;;;9.30;1.50;;;;;;;13.15;73.19;101030.52;113344;1196;22433;-57
2021/10/19 09:36:10;;;;;;;8.70;1.40;;;;;;;13.21;72.73;101026.55;113152;1190;22440;-57
2021/10/19 09:38:50;;;;;;;5.10;1.00;;;;;;;13.27;72.26;101023.11;113202;1198;24068;-54
2021/10/19 09:41:21;;;;;;;4.60;1.00;;;;;;;13.35;72.02;101025.01;113370;1190;22422;-56
2021/10/19 09:43:52;;;;;;;5.50;0.90;;;;;;;13.39;71.38;101017.59;113177;1190;23484;-55
2021/10/19 09:46:27;;;;;;;8.30;1.10;;;;;;;13.45;71.00;101023.84;113290;1190;24087;-56
2021/10/19 09:49:01;;;;;;;5.80;1.00;;;;;;;13.52;70.60;101022.80;113242;1190;25243;-55
2021/10/19 09:51:38;;;;;;;5.20;0.90;;;;;;;13.61;70.52;101013.90;113253;1190;22457;-54
2021/10/19 09:54:11;;;;;;;4.80;1.00;;;;;;;13.67;70.10;101020.17;113239;1198;22473;-57
2021/10/19 09:56:43;;;;;;;5.30;1.00;;;;;;;13.72;69.92;101018.48;113584;1196;22445;-60
2021/10/19 09:59:15;;;;;;;7.20;1.30;;;;;;;13.77;69.30;101023.17;113460;1196;22421;-54
2021/10/19 10:01:47;;;;;;;7.40;1.10;;;;;;;13.78;68.62;101015.85;113134;1196;25020;-55
2021/10/19 10:04:19;;;;;;;7.80;1.10;;;;;;;13.82;68.74;101021.39;113623;1197;22431;-56
2021/10/19 10:06:56;;;;;;;5.20;1.10;;;;;;;13.84;68.99;101014.63;113438;1194;22422;-55
2021/10/19 10:09:28;;;;;;;8.00;1.20;;;;;;;13.88;68.75;101002.91;113434;1189;22433;-56
2021/10/19 10:11:59;;;;;;;7.60;1.10;;;;;;;13.96;68.67;100996.41;113300;1197;22444;-56
2021/10/19 10:14:40;;;;;;;7.30;1.30;;;;;;;14.00;67.92;101000.77;113528;1197;22441;-56
2021/10/19 10:17:12;;;;;;;4.60;1.00;;;;;;;14.04;67.91;100997.67;113264;1189;22423;-54
2021/10/19 10:19:44;;;;;;;7.30;1.00;;;;;;;14.08;67.71;100997.49;113296;1190;22443;-53
2021/10/19 10:22:22;;;;;;;5.20;1.00;;;;;;;14.12;67.63;100994.08;113355;1190;25065;-56
2021/10/19 10:25:05;;;;;;;8.40;1.50;;;;;;;14.16;67.40;100997.28;113298;1190;22437;-53
2021/10/19 10:27:38;;;;;;;6.10;1.60;;;;;;;14.18;67.11;100996.29;113284;1174;22446;-56
2021/10/19 10:30:20;;;;;;;4.30;0.90;;;;;;;14.20;66.78;100988.20;113284;1184;24047;-55
2021/10/19 10:32:54;;;;;;;5.10;1.10;;;;;;;14.27;66.84;100978.63;113278;1197;22416;-54
2021/10/19 10:35:27;;;;;;;7.60;1.30;;;;;;;14.33;66.56;100984.65;113278;1196;24050;-57
2021/10/19 10:37:58;;;;;;;5.40;1.20;;;;;;;14.36;66.32;100989.20;113636;1196;25370;-56
2021/10/19 10:40:31;;;;;;;6.30;1.20;;;;;;;14.39;66.25;100978.52;113231;1196;22435;-57
2021/10/19 10:43:18;;;;;;;6.30;1.20;;;;;;;14.44;65.86;100978.64;113444;1197;25134;-57
2021/10/19 10:46:00;;;;;;;4.50;1.10;;;;;;;14.48;65.27;100975.52;113162;1197;22456;-54
2021/10/19 10:48:34;;;;;;;5.10;1.40;;;;;;;14.50;65.16;100967.19;113259;1196;22444;-57
2021/10/19 10:51:06;;;;;;;6.50;1.30;;;;;;;14.53;64.99;100965.74;113254;1196;22435;-56
2021/10/19 10:53:39;;;;;;;5.20;1.20;;;;;;;14.57;64.83;100963.61;113221;1197;26788;-56
2021/10/19 10:56:12;;;;;;;7.60;1.20;;;;;;;14.58;64.88;100957.65;113262;1196;22436;-57
2021/10/19 10:58:44;;;;;;;6.30;1.10;;;;;;;14.61;64.72;100947.11;113360;1197;22456;-54
2021/10/19 11:01:21;;;;;;;7.80;1.20;;;;;;;14.66;64.78;100936.80;113073;1190;22497;-54
2021/10/19 11:03:54;;;;;;;7.30;1.00;;;;;;;14.70;64.74;100932.46;113345;1189;22462;-56
2021/10/19 11:06:27;;;;;;;10.10;1.50;;;;;;;14.75;64.49;100925.63;113287;1189;25203;-53
2021/10/19 11:09:01;;;;;;;4.30;1.10;;;;;;;14.78;64.44;100922.40;113323;1190;22429;-54
2021/10/19 11:11:38;;;;;;;5.60;1.10;;;;;;;14.78;63.96;100919.39;113445;1197;22429;-54
2021/10/19 11:14:11;;;;;;;6.70;1.30;;;;;;;14.81;63.81;100918.20;113262;1190;25108;-55
2021/10/19 11:16:45;;;;;;;7.70;1.50;;;;;;;14.84;63.60;100920.02;113234;1196;24254;-56
2021/10/19 11:19:19;;;;;;;6.50;1.20;;;;;;;14.86;63.19;100928.70;113251;1190;24618;-56
2021/10/19 11:21:53;;;;;;;7.40;1.30;;;;;;;14.88;63.20;100926.16;113699;1196;22470;-56
2021/10/19 11:24:25;;;;;;;5.00;1.20;;;;;;;14.93;62.56;100920.28;113275;1198;22430;-54
2021/10/19 11:27:00;;;;;;;4.00;1.10;;;;;;;14.96;62.93;100920.48;113447;1192;22419;-58
2021/10/19 11:29:34;;;;;;;6.10;1.50;;;;;;;14.99;62.59;100918.22;113387;1198;22533;-54
2021/10/19 11:32:05;;;;;;;7.40;1.20;;;;;;;15.01;62.34;100916.24;113242;1190;22722;-57
2021/10/19 11:34:37;;;;;;;9.30;1.40;;;;;;;15.04;62.52;100912.29;113252;1190;22452;-57